Time;durP1;ratioP1;P1;durP2;ratioP2;P2;SDS_P1;SDS_P2;PMS_P1;PMS_P2;Temp;Humidity;BMP_temperature;BMP_pressure;BME280_temperature;BME280_humidity;BME280_pressure;Samples;Min_cycle;Max_cycle;Signal;HPM_P1;HPM_P2
2021/12/28 00:02:06;;;;;;;21.77;14.00;;;;;;;8.78;72.38;94779.34;4994438;28;20109;-77
2021/12/28 00:04:32;;;;;;;24.27;15.27;;;;;;;8.69;73.14;94785.75;5028385;28;20589;-77
2021/12/28 00:06:57;;;;;;;22.85;15.27;;;;;;;8.62;73.51;94791.03;5028195;28;20030;-75
2021/12/28 00:09:23;;;;;;;25.85;16.17;;;;;;;8.56;73.74;94781.03;5028118;28;20032;-76
2021/12/28 00:11:48;;;;;;;23.40;14.63;;;;;;;8.55;74.06;94789.22;5027587;28;20049;-77
2021/12/28 00:14:14;;;;;;;24.85;15.30;;;;;;;8.55;74.06;94790.06;5027928;28;20033;-77
2021/12/28 00:19:23;;;;;;;23.35;15.25;;;;;;;8.46;74.44;94786.63;5028009;28;20040;-77
2021/12/28 00:21:48;;;;;;;23.73;15.30;;;;;;;8.43;74.26;94786.94;5016426;28;20451;-77
2021/12/28 00:24:15;;;;;;;19.80;11.05;;;;;;;8.49;73.64;94780.91;5003578;28;20030;-77
2021/12/28 00:26:40;;;;;;;17.42;10.60;;;;;;;8.51;73.73;94784.22;5020923;28;20021;-77
2021/12/28 00:29:05;;;;;;;15.40;9.25;;;;;;;8.49;73.35;94785.41;5019958;28;20036;-77
2021/12/28 00:31:31;;;;;;;15.73;9.27;;;;;;;8.48;73.70;94789.09;5031062;28;20022;-77
2021/12/28 00:33:58;;;;;;;19.13;11.68;;;;;;;8.49;73.60;94786.25;5027633;28;20029;-77
2021/12/28 00:36:23;;;;;;;22.77;13.13;;;;;;;8.50;73.71;94784.38;5010218;28;20032;-77
2021/12/28 00:38:49;;;;;;;24.58;14.52;;;;;;;8.45;74.27;94787.59;5009840;28;20025;-77
2021/12/28 00:41:14;;;;;;;24.45;15.20;;;;;;;8.51;73.72;94786.88;5009856;28;20025;-78
2021/12/28 00:43:40;;;;;;;31.52;17.02;;;;;;;8.35;74.86;94787.03;5027594;28;20028;-77
2021/12/28 00:46:06;;;;;;;24.88;15.30;;;;;;;8.32;74.52;94784.72;5027233;28;20033;-76
2021/12/28 00:48:31;;;;;;;27.83;16.35;;;;;;;8.26;75.20;94789.75;5009547;28;20087;-77
2021/12/28 00:50:58;;;;;;;25.40;15.80;;;;;;;8.25;75.62;94785.41;5009255;28;20494;-77
2021/12/28 00:53:23;;;;;;;26.08;16.20;;;;;;;8.26;75.53;94786.25;5008855;28;20022;-76
2021/12/28 00:55:49;;;;;;;24.42;16.55;;;;;;;8.25;75.52;94790.75;5026887;28;20033;-78
2021/12/28 00:58:14;;;;;;;28.08;15.45;;;;;;;8.26;75.05;94787.09;5009267;28;20045;-78
2021/12/28 01:00:40;;;;;;;23.65;16.13;;;;;;;8.20;75.76;94793.16;5027027;28;20060;-77
2021/12/28 01:03:06;;;;;;;24.88;15.93;;;;;;;8.23;75.41;94798.13;5009429;28;20499;-76
2021/12/28 01:05:32;;;;;;;22.65;15.52;;;;;;;8.21;75.81;94788.63;5009523;28;20047;-77
2021/12/28 01:07:57;;;;;;;25.02;15.50;;;;;;;8.21;75.57;94791.28;5009027;28;20508;-77
2021/12/28 01:10:28;;;;;;;21.40;15.18;;;;;;;8.20;75.86;94793.16;5027165;28;20517;-78
2021/12/28 01:12:55;;;;;;;26.95;14.90;;;;;;;8.23;75.52;94792.78;5026747;28;20029;-77
2021/12/28 01:15:21;;;;;;;23.23;15.80;;;;;;;8.20;75.83;94798.50;5009558;28;20060;-75
2021/12/28 01:17:46;;;;;;;23.13;14.32;;;;;;;8.20;75.96;94795.81;4992643;28;20025;-77
2021/12/28 01:20:12;;;;;;;22.88;14.30;;;;;;;8.23;75.68;94805.31;5026783;28;20018;-78
2021/12/28 01:22:38;;;;;;;22.80;14.57;;;;;;;8.23;76.01;94805.31;5009089;28;20034;-77
2021/12/28 01:25:04;;;;;;;23.17;14.18;;;;;;;8.26;75.76;94802.28;5026473;28;20570;-78
2021/12/28 01:27:29;;;;;;;24.15;14.77;;;;;;;8.31;75.45;94804.41;5009108;28;20496;-76
2021/12/28 01:29:55;;;;;;;24.15;14.40;;;;;;;8.34;75.46;94799.56;5026138;28;20057;-76
2021/12/28 01:32:20;;;;;;;21.88;14.30;;;;;;;8.34;75.51;94794.22;5009087;28;20052;-77
2021/12/28 01:34:46;;;;;;;23.30;14.27;;;;;;;8.31;75.79;94801.75;5026102;28;20507;-77
2021/12/28 01:37:11;;;;;;;27.13;14.93;;;;;;;8.36;75.41;94802.88;5008915;28;20064;-77
2021/12/28 01:39:37;;;;;;;26.23;15.20;;;;;;;8.40;74.91;94803.34;5026781;28;20085;-77
2021/12/28 01:42:05;;;;;;;26.67;14.75;;;;;;;8.37;75.10;94796.53;5026249;28;20021;-78
2021/12/28 01:44:31;;;;;;;26.92;15.00;;;;;;;8.36;75.20;94794.88;5009211;28;20354;-77
2021/12/28 01:46:56;;;;;;;27.67;15.15;;;;;;;8.40;74.99;94798.84;5008158;28;20029;-77
2021/12/28 01:49:22;;;;;;;21.20;12.52;;;;;;;8.43;74.85;94786.94;5026527;28;20385;-77
2021/12/28 01:51:47;;;;;;;21.65;12.93;;;;;;;8.42;75.11;94798.66;5025761;28;20484;-77
2021/12/28 01:54:13;;;;;;;19.00;12.60;;;;;;;8.39;75.00;94796.34;5026414;28;20408;-77
2021/12/28 01:56:40;;;;;;;17.83;12.65;;;;;;;8.40;75.09;94793.50;5026009;28;20485;-77
2021/12/28 01:59:07;;;;;;;19.25;12.45;;;;;;;8.41;74.81;94792.47;5026354;28;20056;-77
2021/12/28 02:01:32;;;;;;;21.60;13.73;;;;;;;8.40;74.63;94798.84;5026518;28;20032;-77
2021/12/28 02:03:58;;;;;;;21.50;14.27;;;;;;;8.40;74.57;94798.00;5007895;28;20030;-77
2021/12/28 02:06:25;;;;;;;20.98;14.57;;;;;;;8.34;75.14;94783.53;5025973;28;20152;-77
2021/12/28 02:08:54;;;;;;;20.73;13.73;;;;;;;8.32;74.83;94793.56;5025368;28;20404;-77
2021/12/28 02:11:19;;;;;;;21.60;13.13;;;;;;;8.32;75.17;94784.72;5008380;28;20678;-77
2021/12/28 02:13:45;;;;;;;20.50;13.23;;;;;;;8.38;74.59;94784.00;5025847;28;20101;-77
2021/12/28 02:16:10;;;;;;;15.02;10.02;;;;;;;8.40;74.03;94787.31;5008588;28;20033;-77
2021/12/28 02:18:36;;;;;;;16.25;10.90;;;;;;;8.42;74.20;94782.63;5026237;28;20412;-78
2021/12/28 02:21:05;;;;;;;15.48;9.48;;;;;;;8.45;73.82;94784.13;5025970;28;20432;-77
2021/12/28 02:23:31;;;;;;;14.57;8.70;;;;;;;8.47;73.43;94784.75;5009032;28;20536;-75
2021/12/28 02:25:57;;;;;;;12.50;8.43;;;;;;;8.43;73.38;94786.13;5007816;28;20029;-77
2021/12/28 02:28:22;;;;;;;10.82;8.18;;;;;;;8.41;73.72;94778.31;5026282;28;20071;-77
2021/12/28 02:30:49;;;;;;;9.75;6.93;;;;;;;8.41;73.13;94780.97;5007779;28;20116;-76
2021/12/28 02:33:16;;;;;;;9.95;6.45;;;;;;;8.40;73.36;94780.13;5025967;28;20160;-77
2021/12/28 02:35:41;;;;;;;12.52;7.32;;;;;;;8.38;73.50;94773.31;5026064;28;20395;-78
2021/12/28 02:38:08;;;;;;;10.38;6.50;;;;;;;8.42;73.29;94777.28;5025535;28;20448;-77
2021/12/28 02:40:34;;;;;;;12.43;5.60;;;;;;;8.43;72.58;94778.13;5008380;28;20032;-77
2021/12/28 02:43:01;;;;;;;8.73;5.15;;;;;;;8.44;72.55;94777.94;5007496;28;20029;-77
2021/12/28 02:45:29;;;;;;;7.45;4.75;;;;;;;8.47;72.61;94774.06;5026063;28;20033;-77
2021/12/28 02:47:55;;;;;;;7.55;5.38;;;;;;;8.44;72.15;94769.91;5025092;28;20104;-77
2021/12/28 02:50:27;;;;;;;10.20;6.22;;;;;;;8.43;72.37;94776.25;5025737;28;20084;-77
2021/12/28 02:52:55;;;;;;;9.57;6.18;;;;;;;8.37;72.32;94772.47;5025791;28;20108;-76
2021/12/28 02:55:21;;;;;;;8.82;6.13;;;;;;;8.34;72.55;94772.00;5025604;28;20034;-77
2021/12/28 02:57:49;;;;;;;10.40;7.00;;;;;;;8.33;72.94;94778.34;5026044;28;20080;-77
2021/12/28 03:00:15;;;;;;;20.70;12.70;;;;;;;8.30;72.65;94776.88;5025119;28;20503;-77
2021/12/28 03:02:40;;;;;;;23.10;15.23;;;;;;;8.24;72.30;94781.09;5007957;28;20032;-76
2021/12/28 03:05:06;;;;;;;26.27;17.00;;;;;;;8.03;72.41;94782.56;5025282;28;20026;-77
2021/12/28 03:07:31;;;;;;;30.10;17.90;;;;;;;7.86;73.34;94775.69;5025770;28;20079;-77
2021/12/28 03:09:57;;;;;;;24.80;16.45;;;;;;;7.86;73.29;94783.69;5025728;28;20034;-78
2021/12/28 03:12:22;;;;;;;23.67;15.80;;;;;;;7.79;73.72;94784.38;5025572;28;20400;-77
2021/12/28 03:14:48;;;;;;;27.80;16.80;;;;;;;7.73;74.12;94777.09;5025639;28;20029;-77
2021/12/28 03:17:13;;;;;;;25.90;16.67;;;;;;;7.68;74.31;94790.13;5026459;28;20021;-77
2021/12/28 03:19:39;;;;;;;24.13;15.90;;;;;;;7.73;74.17;94787.75;5029682;28;20430;-77
2021/12/28 03:22:04;;;;;;;25.60;16.52;;;;;;;7.57;75.10;94783.34;5028463;28;20477;-76
2021/12/28 03:24:30;;;;;;;24.73;15.95;;;;;;;7.50;75.68;94783.19;5029694;28;20026;-77
2021/12/28 03:26:55;;;;;;;25.23;15.57;;;;;;;7.45;76.01;94780.22;5011048;28;20030;-76
2021/12/28 03:29:21;;;;;;;25.83;14.68;;;;;;;7.47;76.00;94786.22;5028767;28;20029;-76
2021/12/28 03:31:47;;;;;;;19.48;13.43;;;;;;;7.45;76.09;94785.56;5011268;28;20021;-77
2021/12/28 03:34:12;;;;;;;22.73;13.73;;;;;;;7.44;76.12;94778.56;5028931;28;20479;-77
2021/12/28 03:36:38;;;;;;;23.85;14.82;;;;;;;7.46;76.02;94781.06;5011308;28;20032;-77
2021/12/28 03:39:03;;;;;;;22.60;14.82;;;;;;;7.34;76.82;94783.25;5028603;28;20056;-77
2021/12/28 03:41:29;;;;;;;23.00;14.77;;;;;;;7.39;76.51;94786.25;5011071;28;20578;-76
2021/12/28 03:43:55;;;;;;;25.17;14.90;;;;;;;7.43;76.42;94782.25;5028595;28;20484;-77
2021/12/28 03:46:21;;;;;;;25.33;17.52;;;;;;;7.43;76.14;94776.91;5028640;28;20075;-77
2021/12/28 03:48:46;;;;;;;29.00;17.40;;;;;;;7.51;75.36;94776.84;5010645;28;20080;-77
2021/12/28 03:51:12;;;;;;;27.58;17.63;;;;;;;7.45;76.28;94771.41;5028637;28;20040;-77
2021/12/28 03:53:37;;;;;;;26.45;17.42;;;;;;;7.41;76.40;94776.25;5028972;28;20018;-77
2021/12/28 03:56:03;;;;;;;24.73;17.10;;;;;;;7.40;76.77;94774.56;5010421;28;20156;-78
2021/12/28 03:58:29;;;;;;;24.77;17.27;;;;;;;7.44;76.52;94780.38;5028512;28;20053;-77
2021/12/28 04:00:54;;;;;;;26.88;17.90;;;;;;;7.38;76.86;94784.59;5028285;28;20028;-77
2021/12/28 04:03:19;;;;;;;29.42;18.80;;;;;;;7.23;77.79;94787.97;5011643;28;20038;-76
2021/12/28 04:05:45;;;;;;;27.52;17.98;;;;;;;7.26;77.67;94786.78;5027742;28;20033;-76
2021/12/28 04:08:19;;;;;;;27.50;18.15;;;;;;;7.30;77.44;94794.28;5010716;28;20176;-76
2021/12/28 04:10:54;;;;;;;32.20;20.30;;;;;;;7.29;77.66;94795.28;5011118;28;20420;-76
2021/12/28 04:13:23;;;;;;;25.17;18.52;;;;;;;7.32;77.47;94788.78;5028295;28;20026;-77
2021/12/28 04:15:49;;;;;;;30.83;19.45;;;;;;;7.35;77.17;94796.44;5011419;28;20450;-77
2021/12/28 04:18:15;;;;;;;29.67;18.73;;;;;;;7.39;76.25;94792.44;5009925;28;20126;-78
2021/12/28 04:20:40;;;;;;;28.02;18.63;;;;;;;7.40;76.35;94796.75;5010058;28;20025;-78
2021/12/28 04:23:06;;;;;;;28.75;19.88;;;;;;;7.23;77.08;94797.81;5027828;28;20484;-77
2021/12/28 04:25:33;;;;;;;30.52;19.48;;;;;;;7.23;76.88;94797.81;5027725;28;20784;-77
2021/12/28 04:27:58;;;;;;;30.33;19.73;;;;;;;7.26;76.73;94795.63;5010163;28;20415;-78
2021/12/28 04:30:24;;;;;;;31.35;19.98;;;;;;;7.27;76.76;94796.47;5027609;28;20496;-77
2021/12/28 04:32:49;;;;;;;26.73;18.17;;;;;;;7.26;76.69;94795.63;5010476;28;20025;-77
2021/12/28 04:35:16;;;;;;;28.65;19.30;;;;;;;7.27;76.65;94793.81;5027526;28;20480;-77
2021/12/28 04:37:42;;;;;;;32.72;19.75;;;;;;;7.27;76.46;94794.63;5028133;28;20076;-77
2021/12/28 04:40:08;;;;;;;28.70;18.55;;;;;;;7.27;76.51;94793.81;5027426;28;20026;-78
2021/12/28 04:42:33;;;;;;;30.40;19.10;;;;;;;7.24;76.44;94800.31;5009719;28;20512;-78
2021/12/28 04:44:59;;;;;;;27.98;18.85;;;;;;;7.20;76.38;94799.00;5027507;28;20033;-78
2021/12/28 04:47:25;;;;;;;32.10;19.42;;;;;;;6.99;77.53;94796.88;5027423;28;20033;-76
2021/12/28 04:49:50;;;;;;;30.33;19.50;;;;;;;7.03;77.45;94801.69;5009768;28;20026;-77
2021/12/28 04:52:15;;;;;;;27.42;18.15;;;;;;;7.06;77.27;94797.88;5027800;28;20314;-75
2021/12/28 04:54:41;;;;;;;29.55;19.33;;;;;;;7.09;77.21;94802.03;5028267;28;20025;-76
2021/12/28 04:57:07;;;;;;;29.55;19.63;;;;;;;7.13;76.84;94801.50;5009342;28;20335;-78
2021/12/28 04:59:32;;;;;;;29.05;18.98;;;;;;;7.15;77.44;94796.84;5010059;28;20542;-77
2021/12/28 05:01:57;;;;;;;28.52;18.45;;;;;;;7.15;77.33;94788.00;5026929;28;20018;-76
2021/12/28 05:04:23;;;;;;;36.83;22.20;;;;;;;7.19;77.64;94791.16;5027763;28;20036;-76
2021/12/28 05:06:48;;;;;;;38.25;21.92;;;;;;;7.24;77.23;94788.81;5026770;28;20022;-77
2021/12/28 05:09:18;;;;;;;34.38;21.63;;;;;;;7.23;77.12;94793.31;5027558;28;20392;-76
2021/12/28 05:11:44;;;;;;;39.20;21.63;;;;;;;7.25;77.35;94794.00;5027140;28;20570;-77
2021/12/28 05:14:09;;;;;;;36.20;21.20;;;;;;;7.27;77.12;94793.81;5027168;28;20025;-76
2021/12/28 05:16:35;;;;;;;39.80;23.08;;;;;;;7.27;77.14;94804.47;5027176;28;20036;-76
2021/12/28 05:19:01;;;;;;;33.65;21.35;;;;;;;7.29;77.16;94805.97;5026686;28;20492;-77
2021/12/28 05:21:27;;;;;;;33.17;18.98;;;;;;;7.30;75.86;94799.63;5027231;28;20025;-78
2021/12/28 05:23:52;;;;;;;31.23;18.63;;;;;;;7.25;76.01;94806.47;5008642;28;20032;-77
2021/12/28 05:26:17;;;;;;;32.42;18.58;;;;;;;7.18;76.03;94811.66;5009669;28;20115;-76
2021/12/28 05:28:43;;;;;;;30.08;18.88;;;;;;;7.13;76.16;94809.50;5026511;28;20389;-77
2021/12/28 05:31:08;;;;;;;28.38;19.15;;;;;;;7.15;76.01;94812.00;5009378;28;20049;-77
2021/12/28 05:33:34;;;;;;;34.80;20.23;;;;;;;7.11;75.80;94808.03;5027155;28;20416;-77
2021/12/28 05:35:59;;;;;;;27.50;17.83;;;;;;;7.07;75.59;94804.03;5026405;28;20022;-76
2021/12/28 05:38:25;;;;;;;31.25;18.63;;;;;;;7.04;75.83;94811.34;5009672;28;20500;-77
2021/12/28 05:40:50;;;;;;;31.92;19.55;;;;;;;7.04;75.52;94808.69;5007652;28;20504;-76
2021/12/28 05:43:15;;;;;;;33.58;19.77;;;;;;;7.02;75.39;94813.38;5009070;28;20393;-76
2021/12/28 05:45:44;;;;;;;35.30;21.70;;;;;;;7.00;75.73;94809.19;5025884;28;20405;-77
2021/12/28 05:48:10;;;;;;;36.15;22.38;;;;;;;6.99;76.13;94810.22;5009632;28;20075;-77
2021/12/28 05:50:35;;;;;;;29.15;21.13;;;;;;;6.98;76.21;94812.03;5008799;28;20025;-77
2021/12/28 05:53:01;;;;;;;30.90;21.10;;;;;;;6.96;76.22;94808.72;5008653;28;20045;-78
2021/12/28 05:55:26;;;;;;;30.85;20.40;;;;;;;6.93;76.14;94809.06;5026901;28;20033;-79
2021/12/28 05:57:52;;;;;;;33.20;19.75;;;;;;;6.92;76.19;94812.72;5025462;28;20045;-78
2021/12/28 06:00:17;;;;;;;31.05;19.60;;;;;;;6.87;76.24;94820.38;5008958;28;20025;-77
2021/12/28 06:02:45;;;;;;;29.83;19.08;;;;;;;6.85;75.89;94822.41;5025929;28;20024;-78
2021/12/28 06:05:10;;;;;;;26.75;18.05;;;;;;;6.92;75.91;94820.72;5026711;28;20045;-76
2021/12/28 06:07:35;;;;;;;30.90;19.90;;;;;;;6.90;76.37;94820.06;5026179;28;20500;-77
2021/12/28 06:10:01;;;;;;;29.55;18.88;;;;;;;6.92;75.67;94823.38;5008434;28;20416;-76
2021/12/28 06:12:26;;;;;;;26.00;17.25;;;;;;;6.97;75.42;94826.38;5008894;28;20497;-76
2021/12/28 06:14:52;;;;;;;23.67;17.00;;;;;;;6.86;75.86;94835.56;5026182;28;20036;-77
2021/12/28 06:17:17;;;;;;;23.98;16.42;;;;;;;6.83;75.96;94835.06;5030493;28;20056;-78
2021/12/28 06:19:43;;;;;;;25.48;16.75;;;;;;;6.95;75.08;94832.91;5035041;28;20030;-76
2021/12/28 06:22:08;;;;;;;27.95;18.17;;;;;;;6.90;75.12;94831.56;5036184;28;20470;-76
2021/12/28 06:24:34;;;;;;;30.60;19.05;;;;;;;6.75;75.77;94831.41;5017364;28;20087;-78
2021/12/28 06:26:59;;;;;;;27.38;16.58;;;;;;;6.73;76.13;94836.06;5010578;28;20022;-77
2021/12/28 06:29:25;;;;;;;30.52;17.20;;;;;;;6.78;75.75;94833.75;5008124;28;20107;-78
2021/12/28 06:31:50;;;;;;;26.92;17.58;;;;;;;6.72;76.05;94837.09;5026223;28;20021;-77
2021/12/28 06:34:16;;;;;;;30.90;17.15;;;;;;;6.65;76.12;94838.75;5026000;28;20306;-75
2021/12/28 06:36:42;;;;;;;28.13;17.42;;;;;;;6.58;75.70;94832.44;5025949;28;20571;-77
2021/12/28 06:39:08;;;;;;;25.45;17.13;;;;;;;6.55;76.40;94826.44;5026187;28;20026;-77
2021/12/28 06:41:33;;;;;;;26.40;17.73;;;;;;;6.54;76.76;94830.09;5008004;28;20071;-76
2021/12/28 06:43:59;;;;;;;24.63;16.90;;;;;;;6.54;76.15;94838.09;5007994;28;20357;-79
2021/12/28 06:46:24;;;;;;;25.65;16.90;;;;;;;6.60;76.46;94846.41;5025371;28;20025;-79
2021/12/28 06:48:49;;;;;;;26.63;17.52;;;;;;;6.55;76.36;94844.22;5025904;28;20435;-78
2021/12/28 06:51:15;;;;;;;32.17;19.73;;;;;;;6.54;76.98;94843.44;5026547;28;20030;-77
2021/12/28 06:53:40;;;;;;;28.63;19.55;;;;;;;6.55;76.65;94847.75;5011784;28;20025;-77
2021/12/28 06:56:06;;;;;;;30.90;19.15;;;;;;;6.53;77.03;94849.72;5029704;28;20411;-78
2021/12/28 06:58:32;;;;;;;28.15;18.85;;;;;;;6.61;76.55;94856.88;5011992;28;20574;-77
2021/12/28 07:00:57;;;;;;;26.58;18.05;;;;;;;6.62;76.41;94860.41;5012888;28;20072;-78
2021/12/28 07:03:23;;;;;;;30.27;19.00;;;;;;;6.61;76.78;94864.06;5030441;28;20480;-78
2021/12/28 07:05:48;;;;;;;29.85;18.52;;;;;;;6.62;76.67;94865.72;5030134;28;20404;-78
2021/12/28 07:08:14;;;;;;;26.48;17.77;;;;;;;6.62;76.94;94858.56;5029402;28;20471;-77
2021/12/28 07:10:40;;;;;;;30.25;17.40;;;;;;;6.64;76.73;94858.41;5030714;28;20049;-76
2021/12/28 07:13:06;;;;;;;24.45;16.63;;;;;;;6.66;77.11;94851.06;5029209;28;20481;-78
2021/12/28 07:15:31;;;;;;;23.70;16.13;;;;;;;6.75;76.70;94858.06;5029488;28;20041;-78
2021/12/28 07:17:57;;;;;;;20.88;13.90;;;;;;;6.77;76.06;94858.72;5029835;28;20574;-78
2021/12/28 07:20:22;;;;;;;24.05;16.92;;;;;;;6.69;76.27;94856.06;5028942;28;20389;-77
2021/12/28 07:22:48;;;;;;;28.08;17.92;;;;;;;6.68;76.51;94862.38;5011774;28;20013;-78
2021/12/28 07:25:13;;;;;;;32.42;19.77;;;;;;;6.66;76.33;94856.38;5028696;28;20017;-77
2021/12/28 07:27:39;;;;;;;27.17;18.85;;;;;;;6.67;76.17;94858.88;5014628;28;20048;-77
2021/12/28 07:30:06;;;;;;;29.65;20.55;;;;;;;6.72;75.48;94860.22;5031673;28;20037;-78
2021/12/28 07:32:32;;;;;;;32.10;20.67;;;;;;;6.68;75.34;94862.38;5031418;28;20129;-76
2021/12/28 07:34:57;;;;;;;30.05;20.25;;;;;;;6.67;75.69;94860.75;5032093;28;20052;-77
2021/12/28 07:37:22;;;;;;;28.02;19.02;;;;;;;6.73;75.39;94860.06;5031153;28;20083;-78
2021/12/28 07:39:50;;;;;;;29.88;19.98;;;;;;;6.73;75.84;94862.72;5029525;28;20033;-79
2021/12/28 07:42:16;;;;;;;34.10;21.38;;;;;;;6.80;75.16;94866.38;5028624;28;20028;-77
2021/12/28 07:44:42;;;;;;;34.80;23.60;;;;;;;6.66;76.28;94867.03;5028879;28;20408;-78
2021/12/28 07:47:07;;;;;;;32.35;22.20;;;;;;;6.74;76.23;94864.38;5028737;28;20484;-77
2021/12/28 07:49:32;;;;;;;29.33;20.70;;;;;;;6.78;76.57;94864.88;5029025;28;20025;-77
2021/12/28 07:51:58;;;;;;;30.80;21.17;;;;;;;6.83;76.09;94864.38;5028784;28;20373;-78
2021/12/28 07:54:23;;;;;;;31.30;22.02;;;;;;;6.98;75.90;94870.69;5010582;28;20353;-79
2021/12/28 07:56:49;;;;;;;34.10;24.35;;;;;;;7.02;75.97;94863.19;5029437;28;20026;-76
2021/12/28 07:59:14;;;;;;;39.30;25.13;;;;;;;7.09;75.79;94866.88;5028238;28;20041;-77
2021/12/28 08:01:40;;;;;;;36.83;25.75;;;;;;;7.17;75.38;94868.69;5010941;28;20079;-77
2021/12/28 08:04:05;;;;;;;37.78;25.90;;;;;;;7.26;74.93;94872.16;5009945;28;20596;-77
2021/12/28 08:06:31;;;;;;;38.78;24.48;;;;;;;7.32;74.98;94865.31;5028808;28;20049;-78
2021/12/28 08:08:56;;;;;;;41.80;23.63;;;;;;;7.33;74.71;94870.47;5028127;28;20025;-76
2021/12/28 08:11:22;;;;;;;40.88;27.00;;;;;;;7.41;73.83;94874.97;5028409;28;20025;-77
2021/12/28 08:13:48;;;;;;;41.25;28.48;;;;;;;7.44;73.65;94869.28;5028394;28;20546;-77
2021/12/28 08:16:14;;;;;;;44.95;29.88;;;;;;;7.36;74.37;94871.97;5028028;28;20479;-77
2021/12/28 08:18:39;;;;;;;45.03;29.85;;;;;;;7.39;74.21;94866.28;5028629;28;20044;-77
2021/12/28 08:21:05;;;;;;;43.70;29.10;;;;;;;7.43;74.36;94878.31;5027779;28;20029;-77
2021/12/28 08:23:30;;;;;;;41.50;27.38;;;;;;;7.52;73.69;94881.75;5028261;28;20432;-77
2021/12/28 08:25:56;;;;;;;44.83;27.80;;;;;;;7.46;74.01;94877.97;5027729;28;20026;-77
2021/12/28 08:28:21;;;;;;;37.78;23.35;;;;;;;7.61;72.82;94874.56;5028178;28;20044;-77
2021/12/28 08:30:46;;;;;;;42.63;25.83;;;;;;;7.61;72.78;94874.56;5027542;28;20022;-78
2021/12/28 08:33:12;;;;;;;42.05;26.02;;;;;;;7.54;72.99;94875.25;5010154;28;20381;-77
2021/12/28 08:35:39;;;;;;;45.83;27.48;;;;;;;7.52;72.83;94876.44;5027780;28;20022;-77
2021/12/28 08:38:06;;;;;;;52.22;29.80;;;;;;;7.46;73.42;94869.94;5027572;28;20215;-77
2021/12/28 08:40:31;;;;;;;52.72;29.88;;;;;;;7.44;73.90;94866.63;5009975;28;20056;-77
2021/12/28 08:42:57;;;;;;;58.13;30.85;;;;;;;7.50;74.18;94871.25;5026990;28;20423;-78
2021/12/28 08:45:22;;;;;;;47.33;27.90;;;;;;;7.59;73.74;94864.06;5027717;28;20029;-78
2021/12/28 08:47:48;;;;;;;49.45;28.70;;;;;;;7.56;73.56;94866.25;5009124;28;20048;-77
2021/12/28 08:50:14;;;;;;;44.85;27.30;;;;;;;7.60;74.10;94859.53;5009919;28;20033;-78
2021/12/28 08:52:39;;;;;;;51.50;27.10;;;;;;;7.61;74.01;94861.22;5009441;28;20022;-78
2021/12/28 08:55:05;;;;;;;43.20;26.20;;;;;;;7.71;73.39;94856.50;5027623;28;20484;-76
2021/12/28 08:57:30;;;;;;;41.63;25.63;;;;;;;7.74;73.74;94856.16;5027809;28;20103;-79
2021/12/28 08:59:56;;;;;;;39.35;24.80;;;;;;;7.81;73.54;94858.13;5027258;28;20462;-77
2021/12/28 09:02:21;;;;;;;47.97;28.23;;;;;;;7.79;74.46;94864.47;5027675;28;20022;-76
2021/12/28 09:04:47;;;;;;;46.72;29.98;;;;;;;7.83;74.08;94856.97;5027086;28;20483;-78
2021/12/28 09:07:13;;;;;;;46.38;28.77;;;;;;;7.83;74.18;94856.97;5009828;28;20013;-77
2021/12/28 09:09:39;;;;;;;50.63;29.88;;;;;;;7.95;74.04;94854.72;4992414;28;20140;-78
2021/12/28 09:12:05;;;;;;;45.28;29.33;;;;;;;8.11;73.74;94853.78;5009440;28;20120;-76
2021/12/28 09:14:32;;;;;;;49.05;29.52;;;;;;;8.25;72.76;94846.84;5008797;28;20032;-78
2021/12/28 09:16:57;;;;;;;50.70;30.38;;;;;;;8.36;72.93;94856.34;5026575;28;20022;-77
2021/12/28 09:19:23;;;;;;;48.78;31.27;;;;;;;8.40;72.81;94854.13;5027281;28;20076;-79
2021/12/28 09:21:48;;;;;;;47.83;30.10;;;;;;;8.59;71.95;94850.16;5026335;28;20029;-78
2021/12/28 09:24:14;;;;;;;48.80;31.95;;;;;;;8.65;72.12;94845.97;5027241;28;20013;-78
2021/12/28 09:26:39;;;;;;;45.88;30.17;;;;;;;8.72;72.27;94846.88;5026077;28;20025;-78
2021/12/28 09:29:05;;;;;;;50.55;30.13;;;;;;;8.87;71.91;94848.78;4992862;28;20056;-77
2021/12/28 09:31:30;;;;;;;50.03;30.92;;;;;;;9.00;71.56;94848.16;5026596;28;20045;-78
2021/12/28 09:33:56;;;;;;;48.47;31.75;;;;;;;9.09;71.30;94844.38;5027143;28;20469;-78
2021/12/28 09:36:21;;;;;;;48.08;30.98;;;;;;;9.25;70.68;94846.06;5009226;28;20048;-77
2021/12/28 09:38:47;;;;;;;45.60;29.50;;;;;;;9.40;70.83;94843.41;5008561;28;20025;-77
2021/12/28 09:41:13;;;;;;;38.13;26.90;;;;;;;9.55;70.18;94836.38;5009505;28;20028;-77
2021/12/28 09:43:38;;;;;;;45.05;27.75;;;;;;;9.59;70.58;94827.78;5026510;28;20104;-77
2021/12/28 09:46:04;;;;;;;41.80;25.77;;;;;;;9.70;70.01;94829.19;5008724;28;20029;-77
2021/12/28 09:48:29;;;;;;;31.88;23.80;;;;;;;9.74;70.55;94825.13;5008327;28;20033;-77
2021/12/28 09:50:55;;;;;;;36.70;23.25;;;;;;;9.82;70.34;94826.03;5026366;28;20056;-77
2021/12/28 09:53:20;;;;;;;33.70;22.15;;;;;;;9.89;70.33;94826.94;5026457;28;20028;-77
2021/12/28 09:55:47;;;;;;;30.75;20.02;;;;;;;9.87;70.67;94818.25;5008380;28;20030;-78
2021/12/28 09:58:12;;;;;;;31.60;19.92;;;;;;;9.85;70.65;94821.13;5026639;28;20099;-77
2021/12/28 10:00:38;;;;;;;28.67;19.48;;;;;;;9.83;70.64;94816.97;4992049;28;20033;-81
2021/12/28 10:03:03;;;;;;;26.30;19.15;;;;;;;9.87;70.37;94823.59;5008440;28;20026;-77
2021/12/28 10:05:30;;;;;;;27.38;18.30;;;;;;;9.85;70.99;94821.13;5007241;28;20034;-76
2021/12/28 10:07:58;;;;;;;26.52;17.90;;;;;;;9.95;70.74;94826.19;5026132;28;20060;-77
2021/12/28 10:10:25;;;;;;;29.08;19.40;;;;;;;9.88;70.90;94822.59;5025832;28;20032;-77
2021/12/28 10:12:53;;;;;;;30.58;19.33;;;;;;;9.91;70.76;94824.91;5026369;28;20029;-78
2021/12/28 10:15:24;;;;;;;32.05;19.35;;;;;;;9.95;70.92;94823.50;5026679;28;20458;-77
2021/12/28 10:17:52;;;;;;;31.23;19.88;;;;;;;10.07;70.85;94818.50;5026346;28;20025;-78
2021/12/28 10:20:23;;;;;;;33.35;20.63;;;;;;;10.10;70.55;94811.91;5026854;28;20397;-76
2021/12/28 10:22:53;;;;;;;27.02;18.90;;;;;;;10.12;69.63;94804.53;5026132;28;20025;-78
2021/12/28 10:25:25;;;;;;;26.02;17.50;;;;;;;10.17;69.71;94806.63;5008743;28;20029;-79
2021/12/28 10:27:57;;;;;;;25.05;17.08;;;;;;;10.21;69.20;94807.91;5029796;28;20025;-78
2021/12/28 10:30:31;;;;;;;21.20;15.27;;;;;;;10.32;69.17;94811.94;5029820;28;20061;-76
2021/12/28 10:32:59;;;;;;;23.63;14.43;;;;;;;10.37;68.21;94806.84;5012887;28;20029;-77
2021/12/28 10:35:27;;;;;;;19.95;12.98;;;;;;;10.43;68.35;94800.69;5011860;28;20028;-77
2021/12/28 10:37:55;;;;;;;14.43;10.07;;;;;;;10.48;67.31;94798.31;4996418;28;20033;-77
2021/12/28 10:40:32;;;;;;;13.15;9.13;;;;;;;10.51;66.99;94792.56;5011510;28;20112;-77
2021/12/28 10:43:02;;;;;;;14.15;9.40;;;;;;;10.55;66.90;94802.91;5030099;28;20060;-77
2021/12/28 10:45:41;;;;;;;13.00;9.35;;;;;;;10.54;66.72;94798.56;5030016;28;20773;-77
2021/12/28 10:48:18;;;;;;;13.63;8.23;;;;;;;10.54;65.78;94790.53;5012901;28;20108;-77
2021/12/28 10:51:08;;;;;;;10.38;7.38;;;;;;;10.51;66.00;94797.94;5029857;28;20033;-78
2021/12/28 10:56:41;;;;;;;12.35;7.72;;;;;;;10.55;65.64;94795.69;5029403;28;20101;-77
2021/12/28 10:59:07;;;;;;;12.75;8.02;;;;;;;10.60;65.59;94787.06;5029466;28;20187;-78
2021/12/28 11:01:35;;;;;;;11.05;7.55;;;;;;;10.63;65.63;94784.84;5011282;28;20030;-77
2021/12/28 11:04:08;;;;;;;13.40;8.18;;;;;;;10.70;65.65;94784.91;5011837;28;20112;-78
2021/12/28 11:06:34;;;;;;;12.10;8.45;;;;;;;10.70;65.59;94779.53;5011650;28;20026;-78
2021/12/28 11:09:08;;;;;;;14.00;8.82;;;;;;;10.74;65.65;94788.00;5029264;28;20037;-77
2021/12/28 11:11:33;;;;;;;11.63;8.65;;;;;;;10.83;65.52;94783.34;5029458;28;20500;-77
2021/12/28 11:14:05;;;;;;;11.95;8.07;;;;;;;10.92;65.79;94775.97;5011148;28;20040;-78
2021/12/28 11:16:31;;;;;;;11.18;8.63;;;;;;;11.00;65.22;94773.13;5029167;28;20049;-76
2021/12/28 11:18:58;;;;;;;9.30;7.13;;;;;;;11.04;65.13;94770.91;5011012;28;20476;-77
2021/12/28 11:21:30;;;;;;;10.30;7.00;;;;;;;11.11;64.72;94772.59;5011325;28;20017;-79
2021/12/28 11:24:04;;;;;;;13.05;8.20;;;;;;;11.18;64.24;94771.81;5028946;28;20100;-78
2021/12/28 11:26:33;;;;;;;12.10;7.20;;;;;;;11.24;63.71;94771.00;5028575;28;20112;-76
2021/12/28 11:29:01;;;;;;;10.32;7.05;;;;;;;11.19;63.75;94765.41;5029308;28;20026;-78